sensor_id;sensor_type;location;lat;lon;timestamp;temperature;humidity
20091;DHT22;10205;49.678;6.560;2022-11-21T00:01:12;10.90;72.00
20091;DHT22;10205;49.678;6.560;2022-11-21T00:03:43;10.90;72.10
20091;DHT22;10205;49.678;6.560;2022-11-21T00:06:14;10.90;72.00
20091;DHT22;10205;49.678;6.560;2022-11-21T00:08:42;10.90;72.00
20091;DHT22;10205;49.678;6.560;2022-11-21T00:11:09;10.90;71.90
20091;DHT22;10205;49.678;6.560;2022-11-21T00:13:36;10.90;71.70
20091;DHT22;10205;49.678;6.560;2022-11-21T00:16:07;10.90;71.60
20091;DHT22;10205;49.678;6.560;2022-11-21T00:18:36;10.90;71.70
20091;DHT22;10205;49.678;6.560;2022-11-21T00:21:05;10.90;71.60
20091;DHT22;10205;49.678;6.560;2022-11-21T00:23:32;10.90;71.70
20091;DHT22;10205;49.678;6.560;2022-11-21T00:26:03;10.90;71.60
20091;DHT22;10205;49.678;6.560;2022-11-21T00:28:31;10.90;71.70
20091;DHT22;10205;49.678;6.560;2022-11-21T00:31:01;10.90;71.70
20091;DHT22;10205;49.678;6.560;2022-11-21T00:33:30;10.90;71.60
20091;DHT22;10205;49.678;6.560;2022-11-21T00:35:57;10.90;71.60
20091;DHT22;10205;49.678;6.560;2022-11-21T00:38:26;10.90;71.60
20091;DHT22;10205;49.678;6.560;2022-11-21T00:40:53;10.90;71.50
20091;DHT22;10205;49.678;6.560;2022-11-21T00:43:20;10.90;71.50
20091;DHT22;10205;49.678;6.560;2022-11-21T00:45:47;11.00;71.50
20091;DHT22;10205;49.678;6.560;2022-11-21T00:48:15;10.90;71.50
20091;DHT22;10205;49.678;6.560;2022-11-21T00:50:43;10.90;71.50
20091;DHT22;10205;49.678;6.560;2022-11-21T00:53:13;11.00;71.50
20091;DHT22;10205;49.678;6.560;2022-11-21T00:55:41;11.00;71.50
20091;DHT22;10205;49.678;6.560;2022-11-21T00:58:08;11.00;71.60
20091;DHT22;10205;49.678;6.560;2022-11-21T01:00:35;11.00;71.60
20091;DHT22;10205;49.678;6.560;2022-11-21T01:03:02;11.00;71.60
20091;DHT22;10205;49.678;6.560;2022-11-21T01:05:31;11.00;71.60
20091;DHT22;10205;49.678;6.560;2022-11-21T01:07:59;11.00;71.60
20091;DHT22;10205;49.678;6.560;2022-11-21T01:10:27;11.00;71.50
20091;DHT22;10205;49.678;6.560;2022-11-21T01:12:54;11.00;71.40
20091;DHT22;10205;49.678;6.560;2022-11-21T01:15:21;11.00;71.30
20091;DHT22;10205;49.678;6.560;2022-11-21T01:17:48;11.00;71.20
20091;DHT22;10205;49.678;6.560;2022-11-21T01:20:16;11.00;71.20
20091;DHT22;10205;49.678;6.560;2022-11-21T01:22:43;11.00;71.30
20091;DHT22;10205;49.678;6.560;2022-11-21T01:25:12;11.00;71.20
20091;DHT22;10205;49.678;6.560;2022-11-21T01:27:39;10.90;71.20
20091;DHT22;10205;49.678;6.560;2022-11-21T01:30:07;10.90;71.20
20091;DHT22;10205;49.678;6.560;2022-11-21T01:32:36;10.90;71.20
20091;DHT22;10205;49.678;6.560;2022-11-21T01:35:03;10.90;71.40
20091;DHT22;10205;49.678;6.560;2022-11-21T01:37:31;11.00;71.30
20091;DHT22;10205;49.678;6.560;2022-11-21T01:39:59;11.00;71.30
20091;DHT22;10205;49.678;6.560;2022-11-21T01:42:27;11.00;71.30
20091;DHT22;10205;49.678;6.560;2022-11-21T01:44:54;11.00;71.20
20091;DHT22;10205;49.678;6.560;2022-11-21T01:47:21;10.90;71.30
20091;DHT22;10205;49.678;6.560;2022-11-21T01:49:49;11.00;71.50
20091;DHT22;10205;49.678;6.560;2022-11-21T01:52:21;11.00;71.50
20091;DHT22;10205;49.678;6.560;2022-11-21T01:54:53;11.00;71.50
20091;DHT22;10205;49.678;6.560;2022-11-21T01:57:27;10.90;71.30
20091;DHT22;10205;49.678;6.560;2022-11-21T01:59:59;11.00;71.40
20091;DHT22;10205;49.678;6.560;2022-11-21T02:02:31;11.00;71.40
20091;DHT22;10205;49.678;6.560;2022-11-21T02:05:04;11.00;71.20
20091;DHT22;10205;49.678;6.560;2022-11-21T02:07:35;10.90;71.10
20091;DHT22;10205;49.678;6.560;2022-11-21T02:10:08;11.00;71.10
20091;DHT22;10205;49.678;6.560;2022-11-21T02:12:42;10.90;71.10
20091;DHT22;10205;49.678;6.560;2022-11-21T02:15:11;10.90;71.10
20091;DHT22;10205;49.678;6.560;2022-11-21T02:17:38;10.90;71.00
20091;DHT22;10205;49.678;6.560;2022-11-21T02:20:07;10.90;70.90
20091;DHT22;10205;49.678;6.560;2022-11-21T02:22:43;10.90;71.10
20091;DHT22;10205;49.678;6.560;2022-11-21T02:25:19;10.90;71.00
20091;DHT22;10205;49.678;6.560;2022-11-21T02:27:52;10.90;71.00
20091;DHT22;10205;49.678;6.560;2022-11-21T02:30:22;10.90;71.00
20091;DHT22;10205;49.678;6.560;2022-11-21T02:32:52;10.90;71.00
20091;DHT22;10205;49.678;6.560;2022-11-21T02:35:19;10.90;70.90
20091;DHT22;10205;49.678;6.560;2022-11-21T02:37:48;10.90;70.90
20091;DHT22;10205;49.678;6.560;2022-11-21T02:40:24;10.90;70.80
20091;DHT22;10205;49.678;6.560;2022-11-21T02:43:00;10.90;70.90
20091;DHT22;10205;49.678;6.560;2022-11-21T02:45:33;10.80;70.90
20091;DHT22;10205;49.678;6.560;2022-11-21T02:48:04;10.80;70.90
20091;DHT22;10205;49.678;6.560;2022-11-21T02:50:32;10.80;70.90
20091;DHT22;10205;49.678;6.560;2022-11-21T02:53:01;10.80;71.00
20091;DHT22;10205;49.678;6.560;2022-11-21T02:55:31;10.80;71.00
20091;DHT22;10205;49.678;6.560;2022-11-21T02:57:58;10.80;71.10
20091;DHT22;10205;49.678;6.560;2022-11-21T03:00:25;10.80;71.10
20091;DHT22;10205;49.678;6.560;2022-11-21T03:02:55;10.70;71.00
20091;DHT22;10205;49.678;6.560;2022-11-21T03:05:22;10.70;71.00
20091;DHT22;10205;49.678;6.560;2022-11-21T03:07:50;10.70;71.00
20091;DHT22;10205;49.678;6.560;2022-11-21T03:10:18;10.70;70.90
20091;DHT22;10205;49.678;6.560;2022-11-21T03:12:47;10.70;71.00
20091;DHT22;10205;49.678;6.560;2022-11-21T03:15:15;10.70;70.90
20091;DHT22;10205;49.678;6.560;2022-11-21T03:17:43;10.70;71.00
20091;DHT22;10205;49.678;6.560;2022-11-21T03:20:14;10.70;70.90
20091;DHT22;10205;49.678;6.560;2022-11-21T03:22:42;10.70;70.90
20091;DHT22;10205;49.678;6.560;2022-11-21T03:25:09;10.70;70.90
20091;DHT22;10205;49.678;6.560;2022-11-21T03:27:36;10.70;70.80
20091;DHT22;10205;49.678;6.560;2022-11-21T03:30:06;10.70;70.80
20091;DHT22;10205;49.678;6.560;2022-11-21T03:32:34;10.70;70.80
20091;DHT22;10205;49.678;6.560;2022-11-21T03:35:01;10.70;70.70
20091;DHT22;10205;49.678;6.560;2022-11-21T03:37:28;10.70;70.70
20091;DHT22;10205;49.678;6.560;2022-11-21T03:39:56;10.70;70.70
20091;DHT22;10205;49.678;6.560;2022-11-21T03:42:23;10.70;70.80
20091;DHT22;10205;49.678;6.560;2022-11-21T03:44:50;10.60;70.70
20091;DHT22;10205;49.678;6.560;2022-11-21T03:47:20;10.60;70.70
20091;DHT22;10205;49.678;6.560;2022-11-21T03:49:47;10.60;70.80
20091;DHT22;10205;49.678;6.560;2022-11-21T03:52:14;10.60;70.70
20091;DHT22;10205;49.678;6.560;2022-11-21T03:54:42;10.60;70.80
20091;DHT22;10205;49.678;6.560;2022-11-21T03:57:09;10.60;70.80
20091;DHT22;10205;49.678;6.560;2022-11-21T03:59:39;10.60;70.70
20091;DHT22;10205;49.678;6.560;2022-11-21T04:02:06;10.60;70.80
20091;DHT22;10205;49.678;6.560;2022-11-21T04:04:35;10.60;70.80
20091;DHT22;10205;49.678;6.560;2022-11-21T04:07:02;10.60;70.90
20091;DHT22;10205;49.678;6.560;2022-11-21T04:09:30;10.60;70.90
20091;DHT22;10205;49.678;6.560;2022-11-21T04:11:57;10.60;70.90
20091;DHT22;10205;49.678;6.560;2022-11-21T04:14:24;10.60;70.90
20091;DHT22;10205;49.678;6.560;2022-11-21T04:16:52;10.60;71.00
20091;DHT22;10205;49.678;6.560;2022-11-21T04:19:19;10.60;71.10
20091;DHT22;10205;49.678;6.560;2022-11-21T04:21:47;10.60;71.00
20091;DHT22;10205;49.678;6.560;2022-11-21T04:24:16;10.60;71.10
20091;DHT22;10205;49.678;6.560;2022-11-21T04:26:43;10.60;71.10
20091;DHT22;10205;49.678;6.560;2022-11-21T04:29:10;10.60;71.20
20091;DHT22;10205;49.678;6.560;2022-11-21T04:31:37;10.60;71.10
20091;DHT22;10205;49.678;6.560;2022-11-21T04:34:07;10.60;71.00
20091;DHT22;10205;49.678;6.560;2022-11-21T04:36:34;10.60;70.90
20091;DHT22;10205;49.678;6.560;2022-11-21T04:39:02;10.60;70.90
20091;DHT22;10205;49.678;6.560;2022-11-21T04:41:30;10.60;70.90
20091;DHT22;10205;49.678;6.560;2022-11-21T04:43:57;10.60;70.90
20091;DHT22;10205;49.678;6.560;2022-11-21T04:46:24;10.60;70.90
20091;DHT22;10205;49.678;6.560;2022-11-21T04:48:51;10.60;70.90
20091;DHT22;10205;49.678;6.560;2022-11-21T04:51:18;10.60;70.80
20091;DHT22;10205;49.678;6.560;2022-11-21T04:53:45;10.60;70.70
20091;DHT22;10205;49.678;6.560;2022-11-21T04:56:14;10.60;70.70
20091;DHT22;10205;49.678;6.560;2022-11-21T04:58:41;10.60;70.50
20091;DHT22;10205;49.678;6.560;2022-11-21T05:01:09;10.60;70.50
20091;DHT22;10205;49.678;6.560;2022-11-21T05:03:37;10.60;70.40
20091;DHT22;10205;49.678;6.560;2022-11-21T05:06:04;10.60;70.50
20091;DHT22;10205;49.678;6.560;2022-11-21T05:08:31;10.60;70.40
20091;DHT22;10205;49.678;6.560;2022-11-21T05:10:58;10.60;70.30
20091;DHT22;10205;49.678;6.560;2022-11-21T05:13:44;10.60;70.20
20091;DHT22;10205;49.678;6.560;2022-11-21T05:16:11;10.60;70.20
20091;DHT22;10205;49.678;6.560;2022-11-21T05:18:38;10.60;70.20
20091;DHT22;10205;49.678;6.560;2022-11-21T05:21:05;10.60;70.00
20091;DHT22;10205;49.678;6.560;2022-11-21T05:23:32;10.60;70.10
20091;DHT22;10205;49.678;6.560;2022-11-21T05:25:59;10.50;70.00
20091;DHT22;10205;49.678;6.560;2022-11-21T05:28:27;10.50;69.80
20091;DHT22;10205;49.678;6.560;2022-11-21T05:30:55;10.50;69.70
20091;DHT22;10205;49.678;6.560;2022-11-21T05:33:23;10.50;69.60
20091;DHT22;10205;49.678;6.560;2022-11-21T05:35:49;10.50;69.60
20091;DHT22;10205;49.678;6.560;2022-11-21T05:38:17;10.50;69.60
20091;DHT22;10205;49.678;6.560;2022-11-21T05:40:44;10.50;69.60
20091;DHT22;10205;49.678;6.560;2022-11-21T05:43:11;10.50;69.40
20091;DHT22;10205;49.678;6.560;2022-11-21T05:45:57;10.40;69.30
20091;DHT22;10205;49.678;6.560;2022-11-21T05:48:24;10.40;69.60
20091;DHT22;10205;49.678;6.560;2022-11-21T05:50:52;10.40;69.60
20091;DHT22;10205;49.678;6.560;2022-11-21T05:53:19;10.40;69.70
20091;DHT22;10205;49.678;6.560;2022-11-21T05:55:46;10.40;69.70
20091;DHT22;10205;49.678;6.560;2022-11-21T05:58:14;10.40;69.60
20091;DHT22;10205;49.678;6.560;2022-11-21T06:00:41;10.40;69.60
20091;DHT22;10205;49.678;6.560;2022-11-21T06:03:10;10.40;69.50
20091;DHT22;10205;49.678;6.560;2022-11-21T06:05:51;10.40;69.40
20091;DHT22;10205;49.678;6.560;2022-11-21T06:08:23;10.30;69.30
20091;DHT22;10205;49.678;6.560;2022-11-21T06:10:50;10.30;69.40
20091;DHT22;10205;49.678;6.560;2022-11-21T06:13:17;10.30;69.50
20091;DHT22;10205;49.678;6.560;2022-11-21T06:15:52;10.30;69.60
20091;DHT22;10205;49.678;6.560;2022-11-21T06:18:23;10.30;69.30
20091;DHT22;10205;49.678;6.560;2022-11-21T06:20:50;10.30;69.60
20091;DHT22;10205;49.678;6.560;2022-11-21T06:23:18;10.20;69.40
20091;DHT22;10205;49.678;6.560;2022-11-21T06:25:46;10.20;69.40
20091;DHT22;10205;49.678;6.560;2022-11-21T06:28:13;10.20;69.60
20091;DHT22;10205;49.678;6.560;2022-11-21T06:30:40;10.20;69.70
20091;DHT22;10205;49.678;6.560;2022-11-21T06:33:07;10.20;69.60
20091;DHT22;10205;49.678;6.560;2022-11-21T06:35:37;10.20;69.30
20091;DHT22;10205;49.678;6.560;2022-11-21T06:38:05;10.10;69.20
20091;DHT22;10205;49.678;6.560;2022-11-21T06:40:32;10.10;69.90
20091;DHT22;10205;49.678;6.560;2022-11-21T06:42:59;10.10;69.30
20091;DHT22;10205;49.678;6.560;2022-11-21T06:45:27;10.10;69.10
20091;DHT22;10205;49.678;6.560;2022-11-21T06:48:00;10.10;69.30
20091;DHT22;10205;49.678;6.560;2022-11-21T06:50:28;10.00;69.20
20091;DHT22;10205;49.678;6.560;2022-11-21T06:52:58;10.00;69.30
20091;DHT22;10205;49.678;6.560;2022-11-21T06:55:26;10.00;69.20
20091;DHT22;10205;49.678;6.560;2022-11-21T06:57:56;10.00;69.20
20091;DHT22;10205;49.678;6.560;2022-11-21T07:00:24;9.90;69.10
20091;DHT22;10205;49.678;6.560;2022-11-21T07:02:52;9.90;69.10
20091;DHT22;10205;49.678;6.560;2022-11-21T07:05:20;9.90;69.10
20091;DHT22;10205;49.678;6.560;2022-11-21T07:07:47;9.90;69.30
20091;DHT22;10205;49.678;6.560;2022-11-21T07:10:16;9.90;69.20
20091;DHT22;10205;49.678;6.560;2022-11-21T07:12:44;9.80;69.10
20091;DHT22;10205;49.678;6.560;2022-11-21T07:15:28;9.80;69.20
20091;DHT22;10205;49.678;6.560;2022-11-21T07:17:57;9.80;69.20
20091;DHT22;10205;49.678;6.560;2022-11-21T07:20:24;9.70;69.10
20091;DHT22;10205;49.678;6.560;2022-11-21T07:22:53;9.70;69.40
20091;DHT22;10205;49.678;6.560;2022-11-21T07:25:22;9.70;69.30
20091;DHT22;10205;49.678;6.560;2022-11-21T07:27:49;9.70;69.40
20091;DHT22;10205;49.678;6.560;2022-11-21T07:30:16;9.60;69.40
20091;DHT22;10205;49.678;6.560;2022-11-21T07:32:44;9.60;69.60
20091;DHT22;10205;49.678;6.560;2022-11-21T07:35:14;9.60;69.50
20091;DHT22;10205;49.678;6.560;2022-11-21T07:37:41;9.60;69.60
20091;DHT22;10205;49.678;6.560;2022-11-21T07:40:09;9.50;69.60
20091;DHT22;10205;49.678;6.560;2022-11-21T07:42:38;9.50;69.80
20091;DHT22;10205;49.678;6.560;2022-11-21T07:45:06;9.50;70.00
20091;DHT22;10205;49.678;6.560;2022-11-21T07:47:34;9.40;70.10
20091;DHT22;10205;49.678;6.560;2022-11-21T07:50:05;9.40;70.20
20091;DHT22;10205;49.678;6.560;2022-11-21T07:52:33;9.40;70.30
20091;DHT22;10205;49.678;6.560;2022-11-21T07:55:01;9.40;70.30
20091;DHT22;10205;49.678;6.560;2022-11-21T07:57:29;9.40;70.30
20091;DHT22;10205;49.678;6.560;2022-11-21T07:59:59;9.40;70.50
20091;DHT22;10205;49.678;6.560;2022-11-21T08:02:27;9.40;70.60
20091;DHT22;10205;49.678;6.560;2022-11-21T08:04:54;9.40;70.70
20091;DHT22;10205;49.678;6.560;2022-11-21T08:07:22;9.40;70.70
20091;DHT22;10205;49.678;6.560;2022-11-21T08:09:49;9.40;70.80
20091;DHT22;10205;49.678;6.560;2022-11-21T08:12:17;9.40;71.70
20091;DHT22;10205;49.678;6.560;2022-11-21T08:14:44;9.40;70.90
20091;DHT22;10205;49.678;6.560;2022-11-21T08:17:12;9.40;70.90
20091;DHT22;10205;49.678;6.560;2022-11-21T08:19:39;9.40;71.00
20091;DHT22;10205;49.678;6.560;2022-11-21T08:22:06;9.50;71.10
20091;DHT22;10205;49.678;6.560;2022-11-21T08:24:36;9.50;71.10
20091;DHT22;10205;49.678;6.560;2022-11-21T08:27:03;9.50;71.20
20091;DHT22;10205;49.678;6.560;2022-11-21T08:29:31;9.50;71.30
20091;DHT22;10205;49.678;6.560;2022-11-21T08:31:58;9.50;71.30
20091;DHT22;10205;49.678;6.560;2022-11-21T08:34:29;9.50;71.20
20091;DHT22;10205;49.678;6.560;2022-11-21T08:36:57;9.50;71.40
20091;DHT22;10205;49.678;6.560;2022-11-21T08:39:24;9.50;71.30
20091;DHT22;10205;49.678;6.560;2022-11-21T08:41:52;9.50;71.40
20091;DHT22;10205;49.678;6.560;2022-11-21T08:44:28;9.50;71.40
20091;DHT22;10205;49.678;6.560;2022-11-21T08:46:56;9.50;71.40
20091;DHT22;10205;49.678;6.560;2022-11-21T08:49:24;9.60;71.40
20091;DHT22;10205;49.678;6.560;2022-11-21T08:51:54;9.50;71.50
20091;DHT22;10205;49.678;6.560;2022-11-21T08:54:22;9.50;72.30
20091;DHT22;10205;49.678;6.560;2022-11-21T08:56:50;9.60;71.70
20091;DHT22;10205;49.678;6.560;2022-11-21T08:59:17;9.60;71.70
20091;DHT22;10205;49.678;6.560;2022-11-21T09:01:44;9.60;71.90
20091;DHT22;10205;49.678;6.560;2022-11-21T09:04:12;9.60;72.10
20091;DHT22;10205;49.678;6.560;2022-11-21T09:06:40;9.60;72.30
20091;DHT22;10205;49.678;6.560;2022-11-21T09:09:07;9.70;72.30
20091;DHT22;10205;49.678;6.560;2022-11-21T09:11:35;9.70;72.30
20091;DHT22;10205;49.678;6.560;2022-11-21T09:14:02;9.70;72.20
20091;DHT22;10205;49.678;6.560;2022-11-21T09:16:47;9.70;72.30
20091;DHT22;10205;49.678;6.560;2022-11-21T09:19:32;9.80;72.30
20091;DHT22;10205;49.678;6.560;2022-11-21T09:22:01;9.80;72.10
20091;DHT22;10205;49.678;6.560;2022-11-21T09:24:28;9.80;72.40
20091;DHT22;10205;49.678;6.560;2022-11-21T09:26:55;9.90;72.50
20091;DHT22;10205;49.678;6.560;2022-11-21T09:29:22;9.90;72.50
20091;DHT22;10205;49.678;6.560;2022-11-21T09:31:50;9.90;72.50
20091;DHT22;10205;49.678;6.560;2022-11-21T09:34:17;10.00;72.40
20091;DHT22;10205;49.678;6.560;2022-11-21T09:36:45;10.00;72.40
20091;DHT22;10205;49.678;6.560;2022-11-21T09:39:13;10.00;72.40
20091;DHT22;10205;49.678;6.560;2022-11-21T09:41:53;10.00;72.60
20091;DHT22;10205;49.678;6.560;2022-11-21T09:44:53;10.10;72.90
20091;DHT22;10205;49.678;6.560;2022-11-21T09:47:30;10.10;73.00
20091;DHT22;10205;49.678;6.560;2022-11-21T09:50:01;10.10;72.60
20091;DHT22;10205;49.678;6.560;2022-11-21T09:52:36;10.20;72.70
20091;DHT22;10205;49.678;6.560;2022-11-21T09:55:22;10.20;72.70
20091;DHT22;10205;49.678;6.560;2022-11-21T09:57:54;10.20;72.70
20091;DHT22;10205;49.678;6.560;2022-11-21T10:00:23;10.30;72.60
20091;DHT22;10205;49.678;6.560;2022-11-21T10:02:51;10.30;72.40
20091;DHT22;10205;49.678;6.560;2022-11-21T10:05:24;10.30;72.50
20091;DHT22;10205;49.678;6.560;2022-11-21T10:08:06;10.30;72.60
20091;DHT22;10205;49.678;6.560;2022-11-21T10:10:52;10.40;72.60
20091;DHT22;10205;49.678;6.560;2022-11-21T10:13:35;10.40;72.60
20091;DHT22;10205;49.678;6.560;2022-11-21T10:16:17;10.40;72.70
20091;DHT22;10205;49.678;6.560;2022-11-21T10:19:00;10.50;72.70
20091;DHT22;10205;49.678;6.560;2022-11-21T10:24:43;10.50;72.30
20091;DHT22;10205;49.678;6.560;2022-11-21T10:27:27;10.50;72.10
20091;DHT22;10205;49.678;6.560;2022-11-21T10:30:02;10.60;72.20
20091;DHT22;10205;49.678;6.560;2022-11-21T10:32:36;10.60;73.00
20091;DHT22;10205;49.678;6.560;2022-11-21T10:35:12;10.60;72.10
20091;DHT22;10205;49.678;6.560;2022-11-21T10:37:46;10.70;72.10
20091;DHT22;10205;49.678;6.560;2022-11-21T10:40:27;10.70;71.90
20091;DHT22;10205;49.678;6.560;2022-11-21T10:43:07;10.70;71.90
20091;DHT22;10205;49.678;6.560;2022-11-21T10:46:00;10.70;71.90
20091;DHT22;10205;49.678;6.560;2022-11-21T10:48:28;10.80;72.00
20091;DHT22;10205;49.678;6.560;2022-11-21T10:51:06;10.80;72.20
20091;DHT22;10205;49.678;6.560;2022-11-21T10:53:43;10.80;72.00
20091;DHT22;10205;49.678;6.560;2022-11-21T10:56:28;10.90;72.00
20091;DHT22;10205;49.678;6.560;2022-11-21T10:59:11;10.90;71.90
20091;DHT22;10205;49.678;6.560;2022-11-21T11:01:54;10.90;71.60
20091;DHT22;10205;49.678;6.560;2022-11-21T11:04:26;10.90;71.50
20091;DHT22;10205;49.678;6.560;2022-11-21T11:06:54;11.00;71.50
20091;DHT22;10205;49.678;6.560;2022-11-21T11:09:27;11.00;71.30
20091;DHT22;10205;49.678;6.560;2022-11-21T11:12:25;11.10;71.30
20091;DHT22;10205;49.678;6.560;2022-11-21T11:15:18;11.10;71.10
20091;DHT22;10205;49.678;6.560;2022-11-21T11:17:53;11.10;71.00
20091;DHT22;10205;49.678;6.560;2022-11-21T11:20:32;11.20;70.90
20091;DHT22;10205;49.678;6.560;2022-11-21T11:23:24;11.20;71.00
20091;DHT22;10205;49.678;6.560;2022-11-21T11:25:54;11.20;70.80
20091;DHT22;10205;49.678;6.560;2022-11-21T11:28:23;11.20;70.70
20091;DHT22;10205;49.678;6.560;2022-11-21T11:30:54;11.30;70.80
20091;DHT22;10205;49.678;6.560;2022-11-21T11:33:33;11.30;70.80
20091;DHT22;10205;49.678;6.560;2022-11-21T11:36:14;11.30;70.70
20091;DHT22;10205;49.678;6.560;2022-11-21T11:38:52;11.30;70.80
20091;DHT22;10205;49.678;6.560;2022-11-21T11:41:51;11.30;70.80
20091;DHT22;10205;49.678;6.560;2022-11-21T11:44:57;11.40;71.00
20091;DHT22;10205;49.678;6.560;2022-11-21T11:47:55;11.40;70.70
20091;DHT22;10205;49.678;6.560;2022-11-21T11:50:29;11.40;70.60
20091;DHT22;10205;49.678;6.560;2022-11-21T11:53:03;11.40;70.40
20091;DHT22;10205;49.678;6.560;2022-11-21T11:55:41;11.40;70.40
20091;DHT22;10205;49.678;6.560;2022-11-21T11:58:20;11.50;70.50
20091;DHT22;10205;49.678;6.560;2022-11-21T12:00:56;11.50;70.50
20091;DHT22;10205;49.678;6.560;2022-11-21T12:03:38;11.50;70.60
20091;DHT22;10205;49.678;6.560;2022-11-21T12:06:14;11.50;70.60
20091;DHT22;10205;49.678;6.560;2022-11-21T12:08:49;11.60;70.70
20091;DHT22;10205;49.678;6.560;2022-11-21T12:11:28;11.60;70.70
20091;DHT22;10205;49.678;6.560;2022-11-21T12:14:34;11.60;70.80
20091;DHT22;10205;49.678;6.560;2022-11-21T12:17:39;11.60;70.70
20091;DHT22;10205;49.678;6.560;2022-11-21T12:20:18;11.70;70.80
20091;DHT22;10205;49.678;6.560;2022-11-21T12:22:49;11.70;70.70
20091;DHT22;10205;49.678;6.560;2022-11-21T12:25:22;11.70;70.50
20091;DHT22;10205;49.678;6.560;2022-11-21T12:27:55;11.70;70.40
20091;DHT22;10205;49.678;6.560;2022-11-21T12:33:33;11.70;70.40
20091;DHT22;10205;49.678;6.560;2022-11-21T12:36:36;11.80;70.40
20091;DHT22;10205;49.678;6.560;2022-11-21T12:39:42;11.80;70.30
20091;DHT22;10205;49.678;6.560;2022-11-21T12:42:26;11.80;70.40
20091;DHT22;10205;49.678;6.560;2022-11-21T12:45:25;11.90;70.40
20091;DHT22;10205;49.678;6.560;2022-11-21T12:48:14;11.90;70.50
20091;DHT22;10205;49.678;6.560;2022-11-21T12:54:56;11.90;70.30
20091;DHT22;10205;49.678;6.560;2022-11-21T13:00:38;12.00;70.40
20091;DHT22;10205;49.678;6.560;2022-11-21T13:03:38;12.00;70.40
20091;DHT22;10205;49.678;6.560;2022-11-21T13:06:15;12.00;70.30
20091;DHT22;10205;49.678;6.560;2022-11-21T13:08:51;12.00;70.30
20091;DHT22;10205;49.678;6.560;2022-11-21T13:11:35;12.00;70.30
20091;DHT22;10205;49.678;6.560;2022-11-21T13:14:34;12.00;70.10
20091;DHT22;10205;49.678;6.560;2022-11-21T13:17:19;12.00;70.20
20091;DHT22;10205;49.678;6.560;2022-11-21T13:19:55;12.10;71.10
20091;DHT22;10205;49.678;6.560;2022-11-21T13:22:49;12.10;70.30
20091;DHT22;10205;49.678;6.560;2022-11-21T13:25:42;12.10;70.20
20091;DHT22;10205;49.678;6.560;2022-11-21T13:28:35;12.10;70.10
20091;DHT22;10205;49.678;6.560;2022-11-21T13:31:26;12.10;70.10
20091;DHT22;10205;49.678;6.560;2022-11-21T13:33:55;12.20;70.20
20091;DHT22;10205;49.678;6.560;2022-11-21T13:36:50;12.20;70.20
20091;DHT22;10205;49.678;6.560;2022-11-21T13:39:28;12.20;70.00
20091;DHT22;10205;49.678;6.560;2022-11-21T13:42:16;12.20;70.10
20091;DHT22;10205;49.678;6.560;2022-11-21T13:45:39;12.20;70.10
20091;DHT22;10205;49.678;6.560;2022-11-21T13:48:36;12.20;70.00
20091;DHT22;10205;49.678;6.560;2022-11-21T13:51:53;12.20;69.90
20091;DHT22;10205;49.678;6.560;2022-11-21T13:54:34;12.30;69.80
20091;DHT22;10205;49.678;6.560;2022-11-21T14:00:53;12.30;69.90
20091;DHT22;10205;49.678;6.560;2022-11-21T14:03:57;12.30;69.90
20091;DHT22;10205;49.678;6.560;2022-11-21T14:06:36;12.40;69.80
20091;DHT22;10205;49.678;6.560;2022-11-21T14:09:20;12.40;69.80
20091;DHT22;10205;49.678;6.560;2022-11-21T14:11:52;12.40;69.70
20091;DHT22;10205;49.678;6.560;2022-11-21T14:14:50;12.40;69.70
20091;DHT22;10205;49.678;6.560;2022-11-21T14:17:41;12.40;69.50
20091;DHT22;10205;49.678;6.560;2022-11-21T14:20:18;12.40;69.40
20091;DHT22;10205;49.678;6.560;2022-11-21T14:22:56;12.40;69.50
20091;DHT22;10205;49.678;6.560;2022-11-21T14:25:36;12.40;69.40
20091;DHT22;10205;49.678;6.560;2022-11-21T14:28:11;12.40;69.40
20091;DHT22;10205;49.678;6.560;2022-11-21T14:30:43;12.40;69.60
20091;DHT22;10205;49.678;6.560;2022-11-21T14:33:26;12.40;69.50
20091;DHT22;10205;49.678;6.560;2022-11-21T14:35:59;12.40;69.30
20091;DHT22;10205;49.678;6.560;2022-11-21T14:38:33;12.50;69.40
20091;DHT22;10205;49.678;6.560;2022-11-21T14:41:25;12.50;69.30
20091;DHT22;10205;49.678;6.560;2022-11-21T14:44:13;12.50;69.00
20091;DHT22;10205;49.678;6.560;2022-11-21T14:46:45;12.50;69.20
20091;DHT22;10205;49.678;6.560;2022-11-21T14:49:24;12.50;69.20
20091;DHT22;10205;49.678;6.560;2022-11-21T14:52:15;12.50;69.20
20091;DHT22;10205;49.678;6.560;2022-11-21T14:54:48;12.50;69.00
20091;DHT22;10205;49.678;6.560;2022-11-21T14:57:21;12.50;69.20
20091;DHT22;10205;49.678;6.560;2022-11-21T14:59:52;12.50;69.20
20091;DHT22;10205;49.678;6.560;2022-11-21T15:02:23;12.50;69.20
20091;DHT22;10205;49.678;6.560;2022-11-21T15:04:52;12.50;69.00
20091;DHT22;10205;49.678;6.560;2022-11-21T15:07:22;12.50;69.00
20091;DHT22;10205;49.678;6.560;2022-11-21T15:09:52;12.50;69.00
20091;DHT22;10205;49.678;6.560;2022-11-21T15:12:24;12.50;69.10
20091;DHT22;10205;49.678;6.560;2022-11-21T15:14:57;12.50;68.90
20091;DHT22;10205;49.678;6.560;2022-11-21T15:17:29;12.50;68.90
20091;DHT22;10205;49.678;6.560;2022-11-21T15:20:14;12.50;68.90
20091;DHT22;10205;49.678;6.560;2022-11-21T15:22:46;12.50;68.90
20091;DHT22;10205;49.678;6.560;2022-11-21T15:25:17;12.50;69.00
20091;DHT22;10205;49.678;6.560;2022-11-21T15:27:47;12.50;69.00
20091;DHT22;10205;49.678;6.560;2022-11-21T15:30:26;12.50;68.90
20091;DHT22;10205;49.678;6.560;2022-11-21T15:33:04;12.50;68.80
20091;DHT22;10205;49.678;6.560;2022-11-21T15:35:57;12.50;68.70
20091;DHT22;10205;49.678;6.560;2022-11-21T15:38:42;12.50;68.60
20091;DHT22;10205;49.678;6.560;2022-11-21T15:41:29;12.50;68.60
20091;DHT22;10205;49.678;6.560;2022-11-21T15:44:20;12.50;68.50
20091;DHT22;10205;49.678;6.560;2022-11-21T15:46:51;12.50;68.40
20091;DHT22;10205;49.678;6.560;2022-11-21T15:49:20;12.50;68.70
20091;DHT22;10205;49.678;6.560;2022-11-21T15:51:48;12.40;69.50
20091;DHT22;10205;49.678;6.560;2022-11-21T15:54:18;12.40;68.80
20091;DHT22;10205;49.678;6.560;2022-11-21T15:56:46;12.40;69.70
20091;DHT22;10205;49.678;6.560;2022-11-21T15:59:14;12.50;69.00
20091;DHT22;10205;49.678;6.560;2022-11-21T16:01:42;12.40;68.90
20091;DHT22;10205;49.678;6.560;2022-11-21T16:04:10;12.40;68.90
20091;DHT22;10205;49.678;6.560;2022-11-21T16:06:39;12.40;68.80
20091;DHT22;10205;49.678;6.560;2022-11-21T16:09:07;12.40;68.80
20091;DHT22;10205;49.678;6.560;2022-11-21T16:11:35;12.40;68.70
20091;DHT22;10205;49.678;6.560;2022-11-21T16:14:06;12.40;68.60
20091;DHT22;10205;49.678;6.560;2022-11-21T16:16:36;12.40;68.60
20091;DHT22;10205;49.678;6.560;2022-11-21T16:19:04;12.40;69.30
20091;DHT22;10205;49.678;6.560;2022-11-21T16:21:32;12.40;68.50
20091;DHT22;10205;49.678;6.560;2022-11-21T16:24:01;12.40;68.60
20091;DHT22;10205;49.678;6.560;2022-11-21T16:26:29;12.40;68.80